KNGU/NGU METAR and TAF weather

Enter ICAO airport designator
Station Type Date Time Source
KNGU METAR 2022/06/30 12:59 UTC NOAA

KNGU 301259Z 24005KT 8SM FEW200 24/21 A3026 RMK AO2 SLP247 T02390206


Station Type Date Time Source
KNGU Decoded METAR 2022/06/30 12:59 UTC NOAA

Norfolk, Naval Air Station, VA, United States (KNGU) 36-56-01N 076-17-45W 8M
Jun 30, 2022 - 08:59 AM EDT / 2022.06.30 1259 UTC
Wind: from the WSW (240 degrees) at 6 MPH (5 KT):0
Visibility: 8 mile(s):0
Sky conditions: mostly clear
Temperature: 75.0 F (23.9 C)
Dew Point: 69.1 F (20.6 C)
Relative Humidity: 81%
Pressure (altimeter): 30.26 in. Hg (1024 hPa)
ob: KNGU 301259Z 24005KT 8SM FEW200 24/21 A3026 RMK AO2 SLP247 T02390206
cycle: 13

Station Type Date Time Source
KNGU TAF 2022/06/30 07:06 UTC NOAA

TAF KNGU 3007/0107 20006KT 9999 SKC QNH3018INS
TEMPO 3007/3009 VRB04KT 8000 BR SCT020
FM301200 VRB04KT 9999 SKC QNH3009INS
BECMG 3018/3020 16008G16KT FEW040 FEW300 QNH3008INS T20/3010Z T31/3020Z FN00071

Example: see airport list